sensor_id;sensor_type;location;lat;lon;timestamp;P1;durP1;ratioP1;P2;durP2;ratioP2
75937;SDS011;64615;32.062;34.834;2024-02-26T00:01:53;14.73;;;8.57;;
75937;SDS011;64615;32.062;34.834;2024-02-26T00:04:19;14.73;;;9.00;;
75937;SDS011;64615;32.062;34.834;2024-02-26T00:06:45;14.60;;;8.65;;
75937;SDS011;64615;32.062;34.834;2024-02-26T00:09:11;15.98;;;9.02;;
75937;SDS011;64615;32.062;34.834;2024-02-26T00:11:37;15.55;;;8.82;;
75937;SDS011;64615;32.062;34.834;2024-02-26T00:14:03;12.32;;;8.07;;
75937;SDS011;64615;32.062;34.834;2024-02-26T00:16:29;14.27;;;8.35;;
75937;SDS011;64615;32.062;34.834;2024-02-26T00:18:55;14.27;;;8.48;;
75937;SDS011;64615;32.062;34.834;2024-02-26T00:21:20;12.60;;;7.90;;
75937;SDS011;64615;32.062;34.834;2024-02-26T00:23:46;13.43;;;8.63;;
75937;SDS011;64615;32.062;34.834;2024-02-26T00:26:12;11.52;;;7.85;;
75937;SDS011;64615;32.062;34.834;2024-02-26T00:28:37;12.80;;;8.00;;
75937;SDS011;64615;32.062;34.834;2024-02-26T00:31:03;11.73;;;8.45;;
75937;SDS011;64615;32.062;34.834;2024-02-26T00:33:29;13.45;;;8.80;;
75937;SDS011;64615;32.062;34.834;2024-02-26T00:35:54;11.82;;;7.63;;
75937;SDS011;64615;32.062;34.834;2024-02-26T00:38:20;12.60;;;7.88;;
75937;SDS011;64615;32.062;34.834;2024-02-26T00:40:46;11.75;;;7.80;;
75937;SDS011;64615;32.062;34.834;2024-02-26T00:43:11;15.43;;;8.48;;
75937;SDS011;64615;32.062;34.834;2024-02-26T00:45:37;13.07;;;8.27;;
75937;SDS011;64615;32.062;34.834;2024-02-26T00:48:03;12.82;;;8.32;;
75937;SDS011;64615;32.062;34.834;2024-02-26T00:50:32;12.65;;;8.27;;
75937;SDS011;64615;32.062;34.834;2024-02-26T00:52:58;13.57;;;7.47;;
75937;SDS011;64615;32.062;34.834;2024-02-26T00:55:24;12.60;;;7.68;;
75937;SDS011;64615;32.062;34.834;2024-02-26T00:57:50;12.75;;;7.88;;
75937;SDS011;64615;32.062;34.834;2024-02-26T01:00:16;12.73;;;7.78;;
75937;SDS011;64615;32.062;34.834;2024-02-26T01:02:41;11.85;;;7.97;;
75937;SDS011;64615;32.062;34.834;2024-02-26T01:05:08;11.88;;;8.05;;
75937;SDS011;64615;32.062;34.834;2024-02-26T01:07:36;13.93;;;7.63;;
75937;SDS011;64615;32.062;34.834;2024-02-26T01:10:02;11.50;;;7.38;;
75937;SDS011;64615;32.062;34.834;2024-02-26T01:12:28;12.57;;;7.90;;
75937;SDS011;64615;32.062;34.834;2024-02-26T01:14:54;11.70;;;7.35;;
75937;SDS011;64615;32.062;34.834;2024-02-26T01:17:19;12.07;;;7.68;;
75937;SDS011;64615;32.062;34.834;2024-02-26T01:19:45;15.57;;;7.80;;
75937;SDS011;64615;32.062;34.834;2024-02-26T01:22:10;11.05;;;7.20;;
75937;SDS011;64615;32.062;34.834;2024-02-26T01:24:36;12.23;;;7.28;;
75937;SDS011;64615;32.062;34.834;2024-02-26T01:27:02;11.38;;;7.65;;
75937;SDS011;64615;32.062;34.834;2024-02-26T01:29:27;14.20;;;7.93;;
75937;SDS011;64615;32.062;34.834;2024-02-26T01:31:53;11.93;;;7.35;;
75937;SDS011;64615;32.062;34.834;2024-02-26T01:34:20;12.80;;;7.65;;
75937;SDS011;64615;32.062;34.834;2024-02-26T01:36:45;11.48;;;7.53;;
75937;SDS011;64615;32.062;34.834;2024-02-26T01:39:11;13.90;;;7.25;;
75937;SDS011;64615;32.062;34.834;2024-02-26T01:41:38;11.57;;;7.32;;
75937;SDS011;64615;32.062;34.834;2024-02-26T01:44:04;11.38;;;7.32;;
75937;SDS011;64615;32.062;34.834;2024-02-26T01:46:30;11.60;;;7.15;;
75937;SDS011;64615;32.062;34.834;2024-02-26T01:48:58;12.45;;;7.88;;
75937;SDS011;64615;32.062;34.834;2024-02-26T01:51:26;11.80;;;7.43;;
75937;SDS011;64615;32.062;34.834;2024-02-26T01:53:52;11.55;;;6.93;;
75937;SDS011;64615;32.062;34.834;2024-02-26T01:56:18;11.68;;;6.90;;
75937;SDS011;64615;32.062;34.834;2024-02-26T01:58:45;14.48;;;7.68;;
75937;SDS011;64615;32.062;34.834;2024-02-26T02:01:13;11.27;;;7.07;;
75937;SDS011;64615;32.062;34.834;2024-02-26T02:03:41;10.23;;;7.30;;
75937;SDS011;64615;32.062;34.834;2024-02-26T02:06:08;13.02;;;7.05;;
75937;SDS011;64615;32.062;34.834;2024-02-26T02:08:34;11.15;;;7.85;;
75937;SDS011;64615;32.062;34.834;2024-02-26T02:11:02;12.07;;;7.18;;
75937;SDS011;64615;32.062;34.834;2024-02-26T02:13:28;11.15;;;7.55;;
75937;SDS011;64615;32.062;34.834;2024-02-26T02:15:54;12.20;;;7.40;;
75937;SDS011;64615;32.062;34.834;2024-02-26T02:18:20;12.55;;;7.53;;
75937;SDS011;64615;32.062;34.834;2024-02-26T02:20:46;11.00;;;7.18;;
75937;SDS011;64615;32.062;34.834;2024-02-26T02:23:11;11.38;;;7.28;;
75937;SDS011;64615;32.062;34.834;2024-02-26T02:25:37;11.55;;;6.97;;
75937;SDS011;64615;32.062;34.834;2024-02-26T02:28:02;11.00;;;7.93;;
75937;SDS011;64615;32.062;34.834;2024-02-26T02:30:29;12.05;;;7.57;;
75937;SDS011;64615;32.062;34.834;2024-02-26T02:32:58;12.82;;;7.68;;
75937;SDS011;64615;32.062;34.834;2024-02-26T02:35:24;11.07;;;7.80;;
75937;SDS011;64615;32.062;34.834;2024-02-26T02:37:53;13.50;;;7.72;;
75937;SDS011;64615;32.062;34.834;2024-02-26T02:40:19;12.43;;;7.90;;
75937;SDS011;64615;32.062;34.834;2024-02-26T02:42:45;14.00;;;7.70;;
75937;SDS011;64615;32.062;34.834;2024-02-26T02:45:11;12.05;;;7.85;;
75937;SDS011;64615;32.062;34.834;2024-02-26T02:47:36;11.88;;;7.93;;
75937;SDS011;64615;32.062;34.834;2024-02-26T02:50:03;11.13;;;7.38;;
75937;SDS011;64615;32.062;34.834;2024-02-26T02:52:29;10.73;;;6.97;;
75937;SDS011;64615;32.062;34.834;2024-02-26T02:54:55;11.82;;;7.13;;
75937;SDS011;64615;32.062;34.834;2024-02-26T02:57:20;12.82;;;7.50;;
75937;SDS011;64615;32.062;34.834;2024-02-26T02:59:46;11.32;;;7.95;;
75937;SDS011;64615;32.062;34.834;2024-02-26T03:02:12;10.85;;;7.10;;
75937;SDS011;64615;32.062;34.834;2024-02-26T03:04:37;13.35;;;7.43;;
75937;SDS011;64615;32.062;34.834;2024-02-26T03:07:03;12.32;;;7.35;;
75937;SDS011;64615;32.062;34.834;2024-02-26T03:09:28;12.43;;;7.40;;
75937;SDS011;64615;32.062;34.834;2024-02-26T03:11:54;12.43;;;7.50;;
75937;SDS011;64615;32.062;34.834;2024-02-26T03:14:20;11.15;;;7.13;;
75937;SDS011;64615;32.062;34.834;2024-02-26T03:16:45;13.00;;;7.38;;
75937;SDS011;64615;32.062;34.834;2024-02-26T03:19:14;12.68;;;7.18;;
75937;SDS011;64615;32.062;34.834;2024-02-26T03:21:40;11.93;;;6.93;;
75937;SDS011;64615;32.062;34.834;2024-02-26T03:24:06;10.68;;;6.28;;
75937;SDS011;64615;32.062;34.834;2024-02-26T03:26:34;11.73;;;6.95;;
75937;SDS011;64615;32.062;34.834;2024-02-26T03:28:59;11.13;;;6.95;;
75937;SDS011;64615;32.062;34.834;2024-02-26T03:31:26;12.98;;;6.90;;
75937;SDS011;64615;32.062;34.834;2024-02-26T03:33:52;11.07;;;6.78;;
75937;SDS011;64615;32.062;34.834;2024-02-26T03:36:18;10.02;;;6.70;;
75937;SDS011;64615;32.062;34.834;2024-02-26T03:38:43;11.88;;;6.72;;
75937;SDS011;64615;32.062;34.834;2024-02-26T03:41:09;11.55;;;6.68;;
75937;SDS011;64615;32.062;34.834;2024-02-26T03:43:35;10.80;;;7.00;;
75937;SDS011;64615;32.062;34.834;2024-02-26T03:46:00;11.18;;;6.53;;
75937;SDS011;64615;32.062;34.834;2024-02-26T03:48:26;10.05;;;6.45;;
75937;SDS011;64615;32.062;34.834;2024-02-26T03:50:52;11.73;;;6.68;;
75937;SDS011;64615;32.062;34.834;2024-02-26T03:53:17;10.80;;;6.40;;
75937;SDS011;64615;32.062;34.834;2024-02-26T03:55:43;11.40;;;7.13;;
75937;SDS011;64615;32.062;34.834;2024-02-26T03:58:09;14.18;;;6.45;;
75937;SDS011;64615;32.062;34.834;2024-02-26T04:00:34;16.98;;;6.88;;
75937;SDS011;64615;32.062;34.834;2024-02-26T04:03:00;15.23;;;6.85;;
75937;SDS011;64615;32.062;34.834;2024-02-26T04:05:25;21.17;;;6.50;;
75937;SDS011;64615;32.062;34.834;2024-02-26T04:07:51;21.90;;;6.85;;
75937;SDS011;64615;32.062;34.834;2024-02-26T04:10:17;24.88;;;7.18;;
75937;SDS011;64615;32.062;34.834;2024-02-26T04:12:42;27.05;;;7.13;;
75937;SDS011;64615;32.062;34.834;2024-02-26T04:15:09;23.42;;;6.78;;
75937;SDS011;64615;32.062;34.834;2024-02-26T04:17:35;30.13;;;7.35;;
75937;SDS011;64615;32.062;34.834;2024-02-26T04:20:02;28.10;;;7.88;;
75937;SDS011;64615;32.062;34.834;2024-02-26T04:22:28;24.88;;;6.70;;
75937;SDS011;64615;32.062;34.834;2024-02-26T04:24:54;29.27;;;6.88;;
75937;SDS011;64615;32.062;34.834;2024-02-26T04:27:19;24.63;;;7.72;;
75937;SDS011;64615;32.062;34.834;2024-02-26T04:29:45;26.10;;;7.20;;
75937;SDS011;64615;32.062;34.834;2024-02-26T04:32:11;23.52;;;7.50;;
75937;SDS011;64615;32.062;34.834;2024-02-26T04:34:36;44.85;;;8.32;;
75937;SDS011;64615;32.062;34.834;2024-02-26T04:37:02;23.33;;;7.38;;
75937;SDS011;64615;32.062;34.834;2024-02-26T04:39:28;27.98;;;7.43;;
75937;SDS011;64615;32.062;34.834;2024-02-26T04:41:53;31.33;;;7.82;;
75937;SDS011;64615;32.062;34.834;2024-02-26T04:44:19;34.78;;;8.27;;
75937;SDS011;64615;32.062;34.834;2024-02-26T04:46:45;21.85;;;7.10;;
75937;SDS011;64615;32.062;34.834;2024-02-26T04:49:11;34.42;;;7.75;;
75937;SDS011;64615;32.062;34.834;2024-02-26T04:51:36;32.88;;;7.15;;
75937;SDS011;64615;32.062;34.834;2024-02-26T04:54:02;31.98;;;7.53;;
75937;SDS011;64615;32.062;34.834;2024-02-26T04:56:28;45.55;;;20.52;;
75937;SDS011;64615;32.062;34.834;2024-02-26T04:58:54;116.35;;;74.13;;
75937;SDS011;64615;32.062;34.834;2024-02-26T05:01:19;169.55;;;99.65;;
75937;SDS011;64615;32.062;34.834;2024-02-26T05:03:45;126.00;;;73.47;;
75937;SDS011;64615;32.062;34.834;2024-02-26T05:06:10;71.90;;;40.42;;
75937;SDS011;64615;32.062;34.834;2024-02-26T05:08:36;405.65;;;295.58;;
75937;SDS011;64615;32.062;34.834;2024-02-26T05:11:03;395.27;;;272.25;;
75937;SDS011;64615;32.062;34.834;2024-02-26T05:13:29;205.82;;;124.80;;
75937;SDS011;64615;32.062;34.834;2024-02-26T05:15:55;141.18;;;84.28;;
75937;SDS011;64615;32.062;34.834;2024-02-26T05:18:24;125.45;;;75.78;;
75937;SDS011;64615;32.062;34.834;2024-02-26T05:20:49;120.38;;;70.90;;
75937;SDS011;64615;32.062;34.834;2024-02-26T05:23:15;112.65;;;68.65;;
75937;SDS011;64615;32.062;34.834;2024-02-26T05:25:41;98.68;;;59.55;;
75937;SDS011;64615;32.062;34.834;2024-02-26T05:28:07;97.32;;;55.17;;
75937;SDS011;64615;32.062;34.834;2024-02-26T05:30:32;92.25;;;51.17;;
75937;SDS011;64615;32.062;34.834;2024-02-26T05:32:58;90.28;;;51.45;;
75937;SDS011;64615;32.062;34.834;2024-02-26T05:35:24;84.03;;;47.00;;
75937;SDS011;64615;32.062;34.834;2024-02-26T05:37:51;87.28;;;44.08;;
75937;SDS011;64615;32.062;34.834;2024-02-26T05:40:16;83.28;;;39.95;;
75937;SDS011;64615;32.062;34.834;2024-02-26T05:42:42;73.40;;;41.58;;
75937;SDS011;64615;32.062;34.834;2024-02-26T05:45:10;79.63;;;39.53;;
75937;SDS011;64615;32.062;34.834;2024-02-26T05:47:36;67.15;;;35.40;;
75937;SDS011;64615;32.062;34.834;2024-02-26T05:50:07;61.67;;;33.17;;
75937;SDS011;64615;32.062;34.834;2024-02-26T05:52:36;47.55;;;21.48;;
75937;SDS011;64615;32.062;34.834;2024-02-26T05:55:03;29.90;;;14.70;;
75937;SDS011;64615;32.062;34.834;2024-02-26T05:57:29;38.55;;;16.95;;
75937;SDS011;64615;32.062;34.834;2024-02-26T05:59:55;34.75;;;16.80;;
75937;SDS011;64615;32.062;34.834;2024-02-26T06:02:20;36.00;;;17.23;;
75937;SDS011;64615;32.062;34.834;2024-02-26T06:04:46;29.67;;;16.10;;
75937;SDS011;64615;32.062;34.834;2024-02-26T06:07:12;35.80;;;15.90;;
75937;SDS011;64615;32.062;34.834;2024-02-26T06:09:38;27.88;;;15.02;;
75937;SDS011;64615;32.062;34.834;2024-02-26T06:12:04;29.83;;;14.25;;
75937;SDS011;64615;32.062;34.834;2024-02-26T06:14:30;32.28;;;14.10;;
75937;SDS011;64615;32.062;34.834;2024-02-26T06:16:56;28.48;;;12.63;;
75937;SDS011;64615;32.062;34.834;2024-02-26T06:19:21;26.15;;;12.45;;
75937;SDS011;64615;32.062;34.834;2024-02-26T06:21:47;26.13;;;13.07;;
75937;SDS011;64615;32.062;34.834;2024-02-26T06:24:13;22.83;;;11.55;;
75937;SDS011;64615;32.062;34.834;2024-02-26T06:26:38;19.27;;;11.27;;
75937;SDS011;64615;32.062;34.834;2024-02-26T06:29:04;19.52;;;10.80;;
75937;SDS011;64615;32.062;34.834;2024-02-26T06:31:30;23.30;;;10.98;;
75937;SDS011;64615;32.062;34.834;2024-02-26T06:33:55;22.42;;;10.65;;
75937;SDS011;64615;32.062;34.834;2024-02-26T06:36:21;21.33;;;10.82;;
75937;SDS011;64615;32.062;34.834;2024-02-26T06:38:47;21.55;;;9.77;;
75937;SDS011;64615;32.062;34.834;2024-02-26T06:41:14;23.27;;;9.88;;
75937;SDS011;64615;32.062;34.834;2024-02-26T06:43:39;16.10;;;9.02;;
75937;SDS011;64615;32.062;34.834;2024-02-26T06:46:05;19.70;;;9.60;;
75937;SDS011;64615;32.062;34.834;2024-02-26T06:48:32;18.40;;;8.95;;
75937;SDS011;64615;32.062;34.834;2024-02-26T06:50:57;19.60;;;9.77;;
75937;SDS011;64615;32.062;34.834;2024-02-26T06:53:23;20.30;;;9.05;;
75937;SDS011;64615;32.062;34.834;2024-02-26T06:55:48;19.73;;;8.98;;
75937;SDS011;64615;32.062;34.834;2024-02-26T06:58:15;16.85;;;8.23;;
75937;SDS011;64615;32.062;34.834;2024-02-26T07:00:41;17.40;;;8.45;;
75937;SDS011;64615;32.062;34.834;2024-02-26T07:03:06;15.60;;;7.72;;
75937;SDS011;64615;32.062;34.834;2024-02-26T07:05:32;15.18;;;7.95;;
75937;SDS011;64615;32.062;34.834;2024-02-26T07:07:58;12.82;;;7.93;;
75937;SDS011;64615;32.062;34.834;2024-02-26T07:10:23;16.52;;;8.05;;
75937;SDS011;64615;32.062;34.834;2024-02-26T07:12:49;16.08;;;7.68;;
75937;SDS011;64615;32.062;34.834;2024-02-26T07:15:15;17.17;;;7.38;;
75937;SDS011;64615;32.062;34.834;2024-02-26T07:17:40;16.55;;;8.00;;
75937;SDS011;64615;32.062;34.834;2024-02-26T07:20:07;19.23;;;7.97;;
75937;SDS011;64615;32.062;34.834;2024-02-26T07:22:34;14.95;;;7.18;;
75937;SDS011;64615;32.062;34.834;2024-02-26T07:25:00;18.33;;;7.50;;
75937;SDS011;64615;32.062;34.834;2024-02-26T07:27:25;15.77;;;7.18;;
75937;SDS011;64615;32.062;34.834;2024-02-26T07:29:51;15.93;;;7.78;;
75937;SDS011;64615;32.062;34.834;2024-02-26T07:32:17;15.48;;;7.10;;
75937;SDS011;64615;32.062;34.834;2024-02-26T07:34:43;17.77;;;7.85;;
75937;SDS011;64615;32.062;34.834;2024-02-26T07:37:10;14.68;;;7.28;;
75937;SDS011;64615;32.062;34.834;2024-02-26T07:39:36;17.25;;;7.18;;
75937;SDS011;64615;32.062;34.834;2024-02-26T07:42:02;17.98;;;7.63;;
75937;SDS011;64615;32.062;34.834;2024-02-26T07:44:28;13.95;;;7.35;;
75937;SDS011;64615;32.062;34.834;2024-02-26T07:46:54;15.13;;;7.30;;
75937;SDS011;64615;32.062;34.834;2024-02-26T07:49:19;13.07;;;6.85;;
75937;SDS011;64615;32.062;34.834;2024-02-26T07:51:45;13.75;;;6.63;;
75937;SDS011;64615;32.062;34.834;2024-02-26T07:54:11;12.50;;;6.70;;
75937;SDS011;64615;32.062;34.834;2024-02-26T07:56:36;13.63;;;7.15;;
75937;SDS011;64615;32.062;34.834;2024-02-26T07:59:03;12.32;;;6.65;;
75937;SDS011;64615;32.062;34.834;2024-02-26T08:01:28;12.23;;;6.20;;
75937;SDS011;64615;32.062;34.834;2024-02-26T08:03:54;11.65;;;6.60;;
75937;SDS011;64615;32.062;34.834;2024-02-26T08:06:20;12.40;;;6.78;;
75937;SDS011;64615;32.062;34.834;2024-02-26T08:08:46;12.82;;;7.03;;
75937;SDS011;64615;32.062;34.834;2024-02-26T08:11:14;10.25;;;6.72;;
75937;SDS011;64615;32.062;34.834;2024-02-26T08:13:40;10.52;;;6.88;;
75937;SDS011;64615;32.062;34.834;2024-02-26T08:16:06;14.23;;;6.95;;
75937;SDS011;64615;32.062;34.834;2024-02-26T08:18:31;13.00;;;7.10;;
75937;SDS011;64615;32.062;34.834;2024-02-26T08:20:57;13.45;;;7.05;;
75937;SDS011;64615;32.062;34.834;2024-02-26T08:23:23;13.27;;;7.40;;
75937;SDS011;64615;32.062;34.834;2024-02-26T08:25:48;15.60;;;7.25;;
75937;SDS011;64615;32.062;34.834;2024-02-26T08:28:14;11.32;;;7.05;;
75937;SDS011;64615;32.062;34.834;2024-02-26T08:33:08;12.23;;;7.22;;
75937;SDS011;64615;32.062;34.834;2024-02-26T08:35:34;12.50;;;7.30;;
75937;SDS011;64615;32.062;34.834;2024-02-26T08:37:59;14.43;;;7.22;;
75937;SDS011;64615;32.062;34.834;2024-02-26T08:40:25;12.65;;;7.15;;
75937;SDS011;64615;32.062;34.834;2024-02-26T08:42:50;13.82;;;7.80;;
75937;SDS011;64615;32.062;34.834;2024-02-26T08:45:16;12.90;;;7.00;;
75937;SDS011;64615;32.062;34.834;2024-02-26T08:47:42;11.63;;;7.63;;
75937;SDS011;64615;32.062;34.834;2024-02-26T08:50:10;12.20;;;7.65;;
75937;SDS011;64615;32.062;34.834;2024-02-26T08:52:37;17.35;;;8.02;;
75937;SDS011;64615;32.062;34.834;2024-02-26T08:55:03;11.68;;;7.97;;
75937;SDS011;64615;32.062;34.834;2024-02-26T08:57:30;12.48;;;8.00;;
75937;SDS011;64615;32.062;34.834;2024-02-26T08:59:59;10.90;;;7.75;;
75937;SDS011;64615;32.062;34.834;2024-02-26T09:02:25;11.85;;;7.80;;
75937;SDS011;64615;32.062;34.834;2024-02-26T09:04:51;13.00;;;8.13;;
75937;SDS011;64615;32.062;34.834;2024-02-26T09:07:20;12.95;;;8.07;;
75937;SDS011;64615;32.062;34.834;2024-02-26T09:09:46;11.15;;;7.80;;
75937;SDS011;64615;32.062;34.834;2024-02-26T09:12:12;11.68;;;7.70;;
75937;SDS011;64615;32.062;34.834;2024-02-26T09:14:38;15.15;;;8.45;;
75937;SDS011;64615;32.062;34.834;2024-02-26T09:17:03;11.32;;;7.63;;
75937;SDS011;64615;32.062;34.834;2024-02-26T09:19:29;11.80;;;7.75;;
75937;SDS011;64615;32.062;34.834;2024-02-26T09:21:54;11.00;;;7.75;;
75937;SDS011;64615;32.062;34.834;2024-02-26T09:24:23;13.27;;;8.05;;
75937;SDS011;64615;32.062;34.834;2024-02-26T09:26:49;13.45;;;8.23;;
75937;SDS011;64615;32.062;34.834;2024-02-26T09:29:15;12.15;;;8.27;;
75937;SDS011;64615;32.062;34.834;2024-02-26T09:31:41;12.70;;;8.70;;
75937;SDS011;64615;32.062;34.834;2024-02-26T09:34:07;13.02;;;8.43;;
75937;SDS011;64615;32.062;34.834;2024-02-26T09:36:36;12.50;;;7.97;;
75937;SDS011;64615;32.062;34.834;2024-02-26T09:39:01;14.25;;;8.07;;
75937;SDS011;64615;32.062;34.834;2024-02-26T09:41:28;10.88;;;7.60;;
75937;SDS011;64615;32.062;34.834;2024-02-26T09:43:56;11.45;;;7.78;;
75937;SDS011;64615;32.062;34.834;2024-02-26T09:46:23;12.55;;;7.60;;
75937;SDS011;64615;32.062;34.834;2024-02-26T09:48:50;11.95;;;6.95;;
75937;SDS011;64615;32.062;34.834;2024-02-26T09:51:16;9.63;;;6.75;;
75937;SDS011;64615;32.062;34.834;2024-02-26T09:53:43;12.00;;;7.68;;
75937;SDS011;64615;32.062;34.834;2024-02-26T09:56:13;11.88;;;7.53;;
75937;SDS011;64615;32.062;34.834;2024-02-26T09:58:40;11.18;;;6.88;;
75937;SDS011;64615;32.062;34.834;2024-02-26T10:01:10;10.38;;;7.10;;
75937;SDS011;64615;32.062;34.834;2024-02-26T10:03:43;11.02;;;7.10;;
75937;SDS011;64615;32.062;34.834;2024-02-26T10:06:10;10.73;;;7.30;;
75937;SDS011;64615;32.062;34.834;2024-02-26T10:08:36;11.63;;;7.18;;
75937;SDS011;64615;32.062;34.834;2024-02-26T10:11:06;10.90;;;7.20;;
75937;SDS011;64615;32.062;34.834;2024-02-26T10:13:34;11.02;;;6.82;;
75937;SDS011;64615;32.062;34.834;2024-02-26T10:16:01;10.95;;;6.97;;
75937;SDS011;64615;32.062;34.834;2024-02-26T10:18:44;12.18;;;7.03;;
75937;SDS011;64615;32.062;34.834;2024-02-26T10:21:13;11.38;;;7.43;;
75937;SDS011;64615;32.062;34.834;2024-02-26T10:23:41;11.20;;;7.22;;
75937;SDS011;64615;32.062;34.834;2024-02-26T10:26:07;13.07;;;7.22;;
75937;SDS011;64615;32.062;34.834;2024-02-26T10:28:35;11.80;;;7.03;;
75937;SDS011;64615;32.062;34.834;2024-02-26T10:31:01;10.27;;;7.05;;
75937;SDS011;64615;32.062;34.834;2024-02-26T10:33:27;11.05;;;7.57;;
75937;SDS011;64615;32.062;34.834;2024-02-26T10:35:53;11.10;;;7.07;;
75937;SDS011;64615;32.062;34.834;2024-02-26T10:38:19;10.80;;;6.88;;
75937;SDS011;64615;32.062;34.834;2024-02-26T10:40:46;10.85;;;7.35;;
75937;SDS011;64615;32.062;34.834;2024-02-26T10:43:13;10.10;;;7.07;;
75937;SDS011;64615;32.062;34.834;2024-02-26T10:45:41;10.93;;;7.40;;
75937;SDS011;64615;32.062;34.834;2024-02-26T10:48:12;10.65;;;7.35;;
75937;SDS011;64615;32.062;34.834;2024-02-26T10:50:39;11.63;;;7.72;;
75937;SDS011;64615;32.062;34.834;2024-02-26T10:53:16;10.98;;;7.30;;
75937;SDS011;64615;32.062;34.834;2024-02-26T10:55:46;11.52;;;7.40;;
75937;SDS011;64615;32.062;34.834;2024-02-26T10:58:14;12.18;;;7.70;;
75937;SDS011;64615;32.062;34.834;2024-02-26T11:00:42;14.60;;;7.60;;
75937;SDS011;64615;32.062;34.834;2024-02-26T11:03:09;11.70;;;7.15;;
75937;SDS011;64615;32.062;34.834;2024-02-26T11:05:35;12.23;;;7.30;;
75937;SDS011;64615;32.062;34.834;2024-02-26T11:08:02;12.27;;;7.93;;
75937;SDS011;64615;32.062;34.834;2024-02-26T11:10:30;14.02;;;7.55;;
75937;SDS011;64615;32.062;34.834;2024-02-26T11:12:57;11.77;;;7.40;;
75937;SDS011;64615;32.062;34.834;2024-02-26T11:15:26;9.85;;;6.90;;
75937;SDS011;64615;32.062;34.834;2024-02-26T11:17:54;10.82;;;7.38;;
75937;SDS011;64615;32.062;34.834;2024-02-26T11:20:21;13.63;;;7.32;;
75937;SDS011;64615;32.062;34.834;2024-02-26T11:22:48;21.70;;;7.68;;
75937;SDS011;64615;32.062;34.834;2024-02-26T11:25:14;14.60;;;7.65;;
75937;SDS011;64615;32.062;34.834;2024-02-26T11:27:46;15.18;;;7.28;;
75937;SDS011;64615;32.062;34.834;2024-02-26T11:30:15;19.98;;;7.25;;
75937;SDS011;64615;32.062;34.834;2024-02-26T11:32:46;13.27;;;7.70;;
75937;SDS011;64615;32.062;34.834;2024-02-26T11:35:12;19.77;;;8.07;;
75937;SDS011;64615;32.062;34.834;2024-02-26T11:40:09;16.38;;;7.50;;
75937;SDS011;64615;32.062;34.834;2024-02-26T11:42:43;20.00;;;7.28;;
75937;SDS011;64615;32.062;34.834;2024-02-26T11:48:20;16.75;;;7.15;;
75937;SDS011;64615;32.062;34.834;2024-02-26T11:50:52;16.60;;;7.30;;
75937;SDS011;64615;32.062;34.834;2024-02-26T11:55:44;10.63;;;7.00;;
75937;SDS011;64615;32.062;34.834;2024-02-26T11:58:10;9.75;;;6.93;;
75937;SDS011;64615;32.062;34.834;2024-02-26T12:00:35;15.65;;;7.22;;
75937;SDS011;64615;32.062;34.834;2024-02-26T12:03:01;13.82;;;7.15;;
75937;SDS011;64615;32.062;34.834;2024-02-26T12:05:31;14.70;;;7.18;;
75937;SDS011;64615;32.062;34.834;2024-02-26T12:08:01;13.32;;;7.28;;
75937;SDS011;64615;32.062;34.834;2024-02-26T12:10:32;11.23;;;6.57;;
75937;SDS011;64615;32.062;34.834;2024-02-26T12:13:07;10.55;;;7.15;;
75937;SDS011;64615;32.062;34.834;2024-02-26T12:15:38;15.23;;;6.55;;
75937;SDS011;64615;32.062;34.834;2024-02-26T12:18:09;15.05;;;7.25;;
75937;SDS011;64615;32.062;34.834;2024-02-26T12:20:36;14.23;;;7.15;;
75937;SDS011;64615;32.062;34.834;2024-02-26T12:23:02;13.82;;;6.65;;
75937;SDS011;64615;32.062;34.834;2024-02-26T12:25:32;11.20;;;6.43;;
75937;SDS011;64615;32.062;34.834;2024-02-26T12:27:58;11.70;;;7.00;;
75937;SDS011;64615;32.062;34.834;2024-02-26T12:30:25;13.23;;;6.50;;
75937;SDS011;64615;32.062;34.834;2024-02-26T12:32:51;11.60;;;6.70;;
75937;SDS011;64615;32.062;34.834;2024-02-26T12:35:22;10.82;;;6.50;;
75937;SDS011;64615;32.062;34.834;2024-02-26T12:37:49;11.77;;;7.32;;
75937;SDS011;64615;32.062;34.834;2024-02-26T12:40:16;12.38;;;6.50;;
75937;SDS011;64615;32.062;34.834;2024-02-26T12:42:42;11.80;;;6.88;;
75937;SDS011;64615;32.062;34.834;2024-02-26T12:45:09;11.65;;;6.38;;
75937;SDS011;64615;32.062;34.834;2024-02-26T12:47:40;9.48;;;6.35;;
75937;SDS011;64615;32.062;34.834;2024-02-26T12:50:09;9.88;;;6.38;;
75937;SDS011;64615;32.062;34.834;2024-02-26T12:52:36;10.57;;;6.05;;
75937;SDS011;64615;32.062;34.834;2024-02-26T12:55:05;9.82;;;6.15;;
75937;SDS011;64615;32.062;34.834;2024-02-26T12:57:34;9.30;;;6.40;;
75937;SDS011;64615;32.062;34.834;2024-02-26T13:00:02;11.63;;;6.40;;
75937;SDS011;64615;32.062;34.834;2024-02-26T13:02:29;8.48;;;6.05;;
75937;SDS011;64615;32.062;34.834;2024-02-26T13:04:56;9.57;;;5.82;;
75937;SDS011;64615;32.062;34.834;2024-02-26T13:07:23;9.90;;;5.60;;
75937;SDS011;64615;32.062;34.834;2024-02-26T13:09:49;10.80;;;6.07;;
75937;SDS011;64615;32.062;34.834;2024-02-26T13:12:15;8.93;;;5.82;;
75937;SDS011;64615;32.062;34.834;2024-02-26T13:14:41;9.10;;;5.90;;
75937;SDS011;64615;32.062;34.834;2024-02-26T13:17:07;9.65;;;5.90;;
75937;SDS011;64615;32.062;34.834;2024-02-26T13:19:33;8.95;;;5.57;;
75937;SDS011;64615;32.062;34.834;2024-02-26T13:22:05;10.35;;;5.88;;
75937;SDS011;64615;32.062;34.834;2024-02-26T13:24:32;9.90;;;5.75;;
75937;SDS011;64615;32.062;34.834;2024-02-26T13:26:58;8.40;;;5.43;;
75937;SDS011;64615;32.062;34.834;2024-02-26T13:29:24;15.80;;;5.63;;
75937;SDS011;64615;32.062;34.834;2024-02-26T13:31:58;12.32;;;5.45;;
75937;SDS011;64615;32.062;34.834;2024-02-26T13:34:24;10.23;;;5.97;;
75937;SDS011;64615;32.062;34.834;2024-02-26T13:36:52;9.05;;;5.40;;
75937;SDS011;64615;32.062;34.834;2024-02-26T13:39:25;12.73;;;5.28;;
75937;SDS011;64615;32.062;34.834;2024-02-26T13:41:52;10.43;;;5.25;;
75937;SDS011;64615;32.062;34.834;2024-02-26T13:44:19;9.50;;;5.40;;
75937;SDS011;64615;32.062;34.834;2024-02-26T13:46:46;10.73;;;5.30;;
75937;SDS011;64615;32.062;34.834;2024-02-26T13:49:12;8.93;;;5.25;;
75937;SDS011;64615;32.062;34.834;2024-02-26T13:51:38;11.63;;;5.15;;
75937;SDS011;64615;32.062;34.834;2024-02-26T13:54:04;13.63;;;5.47;;
75937;SDS011;64615;32.062;34.834;2024-02-26T13:56:30;10.55;;;5.57;;
75937;SDS011;64615;32.062;34.834;2024-02-26T13:58:57;13.30;;;5.53;;
75937;SDS011;64615;32.062;34.834;2024-02-26T14:01:23;16.05;;;5.25;;
75937;SDS011;64615;32.062;34.834;2024-02-26T14:03:49;15.18;;;5.78;;
75937;SDS011;64615;32.062;34.834;2024-02-26T14:06:15;12.35;;;5.40;;
75937;SDS011;64615;32.062;34.834;2024-02-26T14:08:41;17.40;;;5.50;;
75937;SDS011;64615;32.062;34.834;2024-02-26T14:11:06;13.30;;;5.70;;
75937;SDS011;64615;32.062;34.834;2024-02-26T14:13:32;12.80;;;5.78;;
75937;SDS011;64615;32.062;34.834;2024-02-26T14:15:58;11.32;;;5.10;;
75937;SDS011;64615;32.062;34.834;2024-02-26T14:18:23;10.55;;;5.15;;
75937;SDS011;64615;32.062;34.834;2024-02-26T14:20:49;12.02;;;4.80;;
75937;SDS011;64615;32.062;34.834;2024-02-26T14:23:15;8.85;;;4.65;;
75937;SDS011;64615;32.062;34.834;2024-02-26T14:25:41;9.68;;;4.95;;
75937;SDS011;64615;32.062;34.834;2024-02-26T14:28:06;8.98;;;4.70;;